createdAt,value
2023-04-18T00:00:02.183Z,43.48
2023-04-18T00:02:33.385Z,43.30
2023-04-18T00:05:05.595Z,43.24
2023-04-18T00:07:35.598Z,43.47
2023-04-18T00:10:03.628Z,43.36
2023-04-18T00:12:32.402Z,43.44
2023-04-18T00:14:59.010Z,43.42
2023-04-18T00:17:28.318Z,43.33
2023-04-18T00:19:58.315Z,43.34
2023-04-18T00:22:28.750Z,43.49
2023-04-18T00:24:55.562Z,43.35
2023-04-18T00:27:24.547Z,43.34
2023-04-18T00:29:55.924Z,43.54
2023-04-18T00:32:24.984Z,43.48
2023-04-18T00:34:56.279Z,43.51
2023-04-18T00:37:23.069Z,43.56
2023-04-18T00:39:53.847Z,43.50
2023-04-18T00:42:25.449Z,43.51
2023-04-18T00:44:57.012Z,43.56
2023-04-18T00:47:23.659Z,43.35
2023-04-18T00:49:52.927Z,43.32
2023-04-18T00:52:19.591Z,43.55
2023-04-18T00:54:48.536Z,43.35
2023-04-18T00:57:15.302Z,43.63
2023-04-18T00:59:44.352Z,43.60
2023-04-18T01:02:11.200Z,43.57
2023-04-18T01:04:37.919Z,43.40
2023-04-18T01:07:07.137Z,43.46
2023-04-18T01:09:36.161Z,43.54
2023-04-18T01:12:05.272Z,43.51
2023-04-18T01:14:34.718Z,43.62
2023-04-18T01:17:01.660Z,43.61
2023-04-18T01:19:30.485Z,43.62
2023-04-18T01:22:01.867Z,43.53
2023-04-18T01:24:32.049Z,43.48
2023-04-18T01:26:58.892Z,43.58
2023-04-18T01:29:26.134Z,43.49
2023-04-18T01:31:57.401Z,43.67
2023-04-18T01:34:26.739Z,43.59
2023-04-18T01:36:53.390Z,43.56
2023-04-18T01:39:24.815Z,43.76
2023-04-18T01:41:54.089Z,43.51
2023-04-18T01:44:25.200Z,43.55
2023-04-18T01:46:54.071Z,43.44
2023-04-18T01:49:20.725Z,43.39
2023-04-18T01:51:49.988Z,43.53
2023-04-18T01:54:16.878Z,43.43
2023-04-18T01:56:43.550Z,43.67
2023-04-18T01:59:10.246Z,43.57
2023-04-18T02:01:36.990Z,43.54
2023-04-18T02:04:03.710Z,43.62
2023-04-18T02:06:32.811Z,43.46
2023-04-18T02:09:01.916Z,43.49
2023-04-18T02:11:28.636Z,43.44
2023-04-18T02:14:00.702Z,43.50
2023-04-18T02:16:27.431Z,43.63
2023-04-18T02:18:54.205Z,43.57
2023-04-18T02:21:23.612Z,43.72
2023-04-18T02:23:52.485Z,43.50
2023-04-18T02:26:19.187Z,43.48
2023-04-18T02:28:48.266Z,43.56
2023-04-18T02:31:15.768Z,43.70
2023-04-18T02:33:45.378Z,43.55
2023-04-18T02:36:14.722Z,43.69
2023-04-18T02:38:44.986Z,43.58
2023-04-18T02:41:17.501Z,43.66
2023-04-18T02:43:48.805Z,43.78
2023-04-18T02:46:21.860Z,43.64
2023-04-18T02:48:48.493Z,43.43
2023-04-18T02:51:15.239Z,43.57
2023-04-18T02:53:41.901Z,43.72
2023-04-18T02:56:14.704Z,43.68
2023-04-18T02:58:43.620Z,43.63
2023-04-18T03:01:12.540Z,43.67
2023-04-18T03:03:39.302Z,43.80
2023-04-18T03:06:06.903Z,43.64
2023-04-18T03:08:38.418Z,43.52
2023-04-18T03:11:06.085Z,43.59
2023-04-18T03:13:35.459Z,43.66
2023-04-18T03:16:04.626Z,43.68
2023-04-18T03:18:31.542Z,43.63
2023-04-18T03:20:58.490Z,43.57
2023-04-18T03:23:25.267Z,43.64
2023-04-18T03:25:54.475Z,43.71
2023-04-18T03:28:23.513Z,43.60
2023-04-18T03:30:53.783Z,43.54
2023-04-18T03:33:24.257Z,43.79
2023-04-18T03:35:53.210Z,43.59
2023-04-18T03:38:22.187Z,43.79
2023-04-18T03:40:53.690Z,43.56
2023-04-18T03:43:22.660Z,43.78
2023-04-18T03:45:50.145Z,43.77
2023-04-18T03:48:17.569Z,43.80
2023-04-18T03:50:46.553Z,43.59
2023-04-18T03:53:14.438Z,43.61
2023-04-18T03:55:41.276Z,43.51
2023-04-18T03:58:07.937Z,43.50
2023-04-18T04:00:34.711Z,43.56
2023-04-18T04:03:01.884Z,43.62
2023-04-18T04:05:28.771Z,43.60
2023-04-18T04:07:55.412Z,43.69
2023-04-18T04:10:24.297Z,43.75
2023-04-18T04:12:53.231Z,43.67
2023-04-18T04:15:19.918Z,43.66
2023-04-18T04:17:48.980Z,43.62
2023-04-18T04:20:15.774Z,43.61
2023-04-18T04:22:42.780Z,43.80
2023-04-18T04:25:10.465Z,43.57
2023-04-18T04:27:45.007Z,43.68
2023-04-18T04:30:13.406Z,43.76
2023-04-18T04:32:40.228Z,43.63
2023-04-18T04:35:09.795Z,43.67
2023-04-18T04:37:36.495Z,43.66
2023-04-18T04:40:06.253Z,43.63
2023-04-18T04:42:35.076Z,43.62
2023-04-18T04:45:03.301Z,43.77
2023-04-18T04:47:30.096Z,43.60
2023-04-18T04:49:59.756Z,43.83
2023-04-18T04:52:26.555Z,43.64
2023-04-18T04:54:53.173Z,43.74
2023-04-18T04:57:22.043Z,43.62
2023-04-18T04:59:48.640Z,43.73
2023-04-18T05:02:15.388Z,43.73
2023-04-18T05:04:44.342Z,43.71
2023-04-18T05:07:10.931Z,43.73
2023-04-18T05:09:39.778Z,43.79
2023-04-18T05:12:06.614Z,43.80
2023-04-18T05:14:35.665Z,43.70
2023-04-18T05:17:04.577Z,43.61
2023-04-18T05:19:36.206Z,43.66
2023-04-18T05:22:05.237Z,43.63
2023-04-18T05:24:34.088Z,43.74
2023-04-18T05:27:02.869Z,43.61
2023-04-18T05:29:29.692Z,43.68
2023-04-18T05:31:56.331Z,43.74
2023-04-18T05:34:22.977Z,43.61
2023-04-18T05:36:54.679Z,43.83
2023-04-18T05:39:26.284Z,43.70
2023-04-18T05:41:55.308Z,43.62
2023-04-18T05:44:24.161Z,43.63
2023-04-18T05:46:53.817Z,43.67
2023-04-18T05:49:23.771Z,43.72
2023-04-18T05:51:53.176Z,43.58
2023-04-18T05:54:21.509Z,43.62
2023-04-18T05:56:53.390Z,43.77
2023-04-18T05:59:20.877Z,43.71
2023-04-18T06:01:47.543Z,43.85
2023-04-18T06:04:19.093Z,43.63
2023-04-18T06:06:50.846Z,43.74
2023-04-18T06:09:17.512Z,43.54
2023-04-18T06:11:51.781Z,43.63
2023-04-18T06:14:18.630Z,43.85
2023-04-18T06:16:50.517Z,43.75
2023-04-18T06:19:19.388Z,43.62
2023-04-18T06:21:46.521Z,43.80
2023-04-18T06:24:13.352Z,43.79
2023-04-18T06:26:45.243Z,43.76
2023-04-18T06:29:14.272Z,43.62
2023-04-18T06:31:42.178Z,43.88
2023-04-18T06:34:09.001Z,43.66
2023-04-18T06:36:35.648Z,43.63
2023-04-18T06:39:04.898Z,43.48
2023-04-18T06:41:33.642Z,43.52
2023-04-18T06:44:04.492Z,43.59
2023-04-18T06:46:33.875Z,43.69
2023-04-18T06:49:05.863Z,43.66
2023-04-18T06:51:32.534Z,43.61
2023-04-18T06:53:59.242Z,43.77
2023-04-18T06:56:29.618Z,43.74
2023-04-18T06:58:56.280Z,43.87
2023-04-18T07:01:25.321Z,43.61
2023-04-18T07:03:52.184Z,43.72
2023-04-18T07:06:23.588Z,43.72
2023-04-18T07:08:54.433Z,43.63
2023-04-18T07:11:21.508Z,43.64
2023-04-18T07:13:50.335Z,43.55
2023-04-18T07:16:17.002Z,43.56
2023-04-18T07:18:46.118Z,43.69
2023-04-18T07:21:14.945Z,43.58
2023-04-18T07:23:46.679Z,43.70
2023-04-18T07:26:13.741Z,43.54
2023-04-18T07:28:42.623Z,43.65
2023-04-18T07:31:11.689Z,43.56
2023-04-18T07:33:38.828Z,43.68
2023-04-18T07:36:08.345Z,43.68
2023-04-18T07:38:38.018Z,43.42
2023-04-18T07:41:04.717Z,43.58
2023-04-18T07:43:31.498Z,43.53
2023-04-18T07:46:02.981Z,43.60
2023-04-18T07:48:32.201Z,43.58
2023-04-18T07:50:59.004Z,43.50
2023-04-18T07:53:25.735Z,43.50
2023-04-18T07:55:54.493Z,43.53
2023-04-18T07:58:21.284Z,43.51
2023-04-18T08:00:48.001Z,43.64
2023-04-18T08:03:19.524Z,43.64
2023-04-18T08:05:46.703Z,43.54
2023-04-18T08:08:16.235Z,43.59
2023-04-18T08:10:45.467Z,43.67
2023-04-18T08:13:14.926Z,43.51
2023-04-18T08:15:42.690Z,43.60
2023-04-18T08:18:14.155Z,43.74
2023-04-18T08:20:42.997Z,43.43
2023-04-18T08:23:15.002Z,43.57
2023-04-18T08:25:41.706Z,43.47
2023-04-18T08:28:12.072Z,43.60
2023-04-18T08:30:44.124Z,43.60
2023-04-18T08:33:13.089Z,43.51
2023-04-18T08:35:41.982Z,43.36
2023-04-18T08:38:10.795Z,43.37
2023-04-18T08:40:37.717Z,43.38
2023-04-18T08:43:09.357Z,43.44
2023-04-18T08:45:39.173Z,43.42
2023-04-18T08:48:09.134Z,43.32
2023-04-18T08:50:38.529Z,43.41
2023-04-18T08:53:05.853Z,43.45
2023-04-18T08:55:34.630Z,43.27
2023-04-18T08:58:01.749Z,43.37
2023-04-18T09:00:32.021Z,43.45
2023-04-18T09:02:59.177Z,43.28
2023-04-18T09:05:26.993Z,43.19
2023-04-18T09:07:56.228Z,43.21
2023-04-18T09:10:33.450Z,43.07
2023-04-18T09:13:03.236Z,43.12
2023-04-18T09:15:32.448Z,43.03
2023-04-18T09:18:01.684Z,43.02
2023-04-18T09:20:43.684Z,43.04
2023-04-18T09:23:11.741Z,42.99
2023-04-18T09:25:44.125Z,43.01
2023-04-18T09:28:32.175Z,42.99
2023-04-18T09:31:09.674Z,43.18
2023-04-18T09:33:43.071Z,43.03
2023-04-18T09:36:42.746Z,43.06
2023-04-18T09:39:12.409Z,43.20
2023-04-18T09:41:39.318Z,43.21
2023-04-18T09:44:15.282Z,43.00
2023-04-18T09:46:45.237Z,43.07
2023-04-18T09:49:16.927Z,43.01
2023-04-18T09:51:46.391Z,43.30
2023-04-18T09:54:20.082Z,43.22
2023-04-18T09:56:47.461Z,43.19
2023-04-18T09:59:21.203Z,43.20
2023-04-18T10:01:48.670Z,43.03
2023-04-18T10:04:15.720Z,43.21
2023-04-18T10:06:43.026Z,43.08
2023-04-18T10:09:09.978Z,42.95
2023-04-18T10:11:38.811Z,43.11
2023-04-18T10:14:09.786Z,43.22
2023-04-18T10:16:39.112Z,43.31
2023-04-18T10:19:25.914Z,43.15
2023-04-18T10:21:57.226Z,43.08
2023-04-18T10:24:42.555Z,43.21
2023-04-18T10:27:09.246Z,43.12
2023-04-18T10:29:51.615Z,43.28
2023-04-18T10:32:19.632Z,43.15
2023-04-18T10:34:47.171Z,43.32
2023-04-18T10:37:13.887Z,43.27
2023-04-18T10:39:53.840Z,43.35
2023-04-18T10:42:41.120Z,43.25
2023-04-18T10:45:31.023Z,43.31
2023-04-18T10:48:27.620Z,43.30
2023-04-18T10:51:13.853Z,43.30
2023-04-18T10:53:54.042Z,43.28
2023-04-18T10:56:25.496Z,43.25
2023-04-18T10:58:57.840Z,43.18
2023-04-18T11:01:31.761Z,43.11
2023-04-18T11:04:02.560Z,43.33
2023-04-18T11:06:31.509Z,43.22
2023-04-18T11:09:13.927Z,43.16
2023-04-18T11:11:41.549Z,43.23
2023-04-18T11:14:13.262Z,43.16
2023-04-18T11:16:42.492Z,43.01
2023-04-18T11:19:20.324Z,43.12
2023-04-18T11:21:47.076Z,43.23
2023-04-18T11:24:24.309Z,43.17
2023-04-18T11:26:56.217Z,43.19
2023-04-18T11:29:27.727Z,43.09
2023-04-18T11:31:57.729Z,43.22
2023-04-18T11:34:31.551Z,43.03
2023-04-18T11:36:58.275Z,43.27
2023-04-18T11:39:24.982Z,43.07
2023-04-18T11:41:56.386Z,43.20
2023-04-18T11:44:23.854Z,43.18
2023-04-18T11:46:51.499Z,43.25
2023-04-18T11:49:31.506Z,43.06
2023-04-18T11:52:01.654Z,43.19
2023-04-18T11:54:44.716Z,43.26
2023-04-18T11:57:45.566Z,43.27
2023-04-18T12:00:15.253Z,43.14
2023-04-18T12:02:53.961Z,43.29
2023-04-18T12:05:33.476Z,43.18
2023-04-18T12:08:21.973Z,43.27
2023-04-18T12:10:50.951Z,43.16
2023-04-18T12:13:17.624Z,43.25
2023-04-18T12:15:45.393Z,43.30
2023-04-18T12:18:16.875Z,43.28
2023-04-18T12:20:54.051Z,43.42
2023-04-18T12:23:30.645Z,43.24
2023-04-18T12:26:07.723Z,43.28
2023-04-18T12:28:37.015Z,43.14
2023-04-18T12:31:07.115Z,43.30
2023-04-18T12:33:36.493Z,43.31
2023-04-18T12:36:05.181Z,43.37
2023-04-18T12:38:31.921Z,43.40
2023-04-18T12:41:00.991Z,43.39
2023-04-18T12:43:30.583Z,43.36
2023-04-18T12:45:59.341Z,43.26
2023-04-18T12:48:28.260Z,43.35
2023-04-18T12:50:54.919Z,43.39
2023-04-18T12:53:23.775Z,43.35
2023-04-18T12:55:50.390Z,43.45
2023-04-18T12:58:18.865Z,43.41
2023-04-18T13:00:47.728Z,43.44
2023-04-18T13:03:14.604Z,43.51
2023-04-18T13:05:44.342Z,43.50
2023-04-18T13:08:16.751Z,43.53
2023-04-18T13:10:44.162Z,43.43
2023-04-18T13:13:10.837Z,43.65
2023-04-18T13:15:37.634Z,43.55
2023-04-18T13:18:05.107Z,43.49
2023-04-18T13:20:35.879Z,43.54
2023-04-18T13:23:05.170Z,43.41
2023-04-18T13:25:31.869Z,43.51
2023-04-18T13:28:00.845Z,43.36
2023-04-18T13:30:31.788Z,43.61
2023-04-18T13:33:00.931Z,43.44
2023-04-18T13:35:29.868Z,43.32
2023-04-18T13:38:01.338Z,43.45
2023-04-18T13:40:28.021Z,43.41
2023-04-18T13:42:56.907Z,43.50
2023-04-18T13:45:25.875Z,43.43
2023-04-18T13:47:57.224Z,43.39
2023-04-18T13:50:26.678Z,43.53
2023-04-18T13:52:54.788Z,43.40
2023-04-18T13:55:24.276Z,43.47
2023-04-18T13:57:53.353Z,43.59
2023-04-18T14:00:22.771Z,43.65
2023-04-18T14:02:52.225Z,43.72
2023-04-18T14:05:21.548Z,43.45
2023-04-18T14:07:48.663Z,43.54
2023-04-18T14:10:15.325Z,43.51
2023-04-18T14:12:44.102Z,43.59
2023-04-18T14:15:11.284Z,43.52
2023-04-18T14:17:38.091Z,43.72
2023-04-18T14:20:05.473Z,43.48
2023-04-18T14:22:32.170Z,43.47
2023-04-18T14:25:01.112Z,43.58
2023-04-18T14:27:27.848Z,43.63
2023-04-18T14:29:56.655Z,43.52
2023-04-18T14:32:26.197Z,43.60
2023-04-18T14:34:55.097Z,43.52
2023-04-18T14:37:22.406Z,43.51
2023-04-18T14:39:51.466Z,43.66
2023-04-18T14:42:18.504Z,43.37
2023-04-18T14:44:45.286Z,43.56
2023-04-18T14:47:14.289Z,43.63
2023-04-18T14:49:43.242Z,43.49
2023-04-18T14:52:09.977Z,43.55
2023-04-18T14:54:38.790Z,43.70
2023-04-18T14:57:10.241Z,43.67
2023-04-18T14:59:36.960Z,43.61
2023-04-18T15:02:05.844Z,43.46
2023-04-18T15:04:32.737Z,43.60
2023-04-18T15:06:59.567Z,43.51
2023-04-18T15:09:26.135Z,43.55
2023-04-18T15:11:55.173Z,43.67
2023-04-18T15:14:26.628Z,43.63
2023-04-18T15:16:55.939Z,43.67
2023-04-18T15:19:24.957Z,43.65
2023-04-18T15:21:53.944Z,43.58
2023-04-18T15:24:20.619Z,43.49
2023-04-18T15:26:50.098Z,43.63
2023-04-18T15:29:21.412Z,43.76
2023-04-18T15:31:50.800Z,43.61
2023-04-18T15:34:19.883Z,43.64
2023-04-18T15:36:49.706Z,43.60
2023-04-18T15:39:23.593Z,43.69
2023-04-18T15:41:54.577Z,43.47
2023-04-18T15:44:21.695Z,43.50
2023-04-18T15:46:48.980Z,43.61
2023-04-18T15:49:17.945Z,43.56
2023-04-18T15:51:44.643Z,43.80
2023-04-18T15:54:11.461Z,43.57
2023-04-18T15:56:42.064Z,43.59
2023-04-18T15:59:11.006Z,43.50
2023-04-18T16:01:37.753Z,43.57
2023-04-18T16:04:07.222Z,43.43
2023-04-18T16:06:33.944Z,43.72
2023-04-18T16:09:00.566Z,43.70
2023-04-18T16:11:27.674Z,43.45
2023-04-18T16:13:57.625Z,43.51
2023-04-18T16:16:26.608Z,43.38
2023-04-18T16:18:55.760Z,43.51
2023-04-18T16:21:28.339Z,43.43
2023-04-18T16:23:54.967Z,43.58
2023-04-18T16:26:28.612Z,43.32
2023-04-18T16:28:55.350Z,43.57
2023-04-18T16:31:24.261Z,43.73
2023-04-18T16:33:52.700Z,43.49
2023-04-18T16:36:19.523Z,43.35
2023-04-18T16:38:49.391Z,43.36
2023-04-18T16:41:16.181Z,43.53
2023-04-18T16:43:43.585Z,43.43
2023-04-18T16:46:11.945Z,43.46
2023-04-18T16:48:41.850Z,43.43
2023-04-18T16:51:13.328Z,43.55
2023-04-18T16:53:39.941Z,43.60
2023-04-18T16:56:09.976Z,43.45
2023-04-18T16:58:41.313Z,43.51
2023-04-18T17:01:09.635Z,43.30
2023-04-18T17:03:39.096Z,43.38
2023-04-18T17:06:07.002Z,43.34
2023-04-18T17:08:36.104Z,43.44
2023-04-18T17:11:05.078Z,43.32
2023-04-18T17:13:34.003Z,43.59
2023-04-18T17:16:05.619Z,43.41
2023-04-18T17:18:36.952Z,43.61
2023-04-18T17:21:03.679Z,43.52
2023-04-18T17:23:32.210Z,43.44
2023-04-18T17:25:59.617Z,43.40
2023-04-18T17:28:26.382Z,43.49
2023-04-18T17:30:53.229Z,43.42
2023-04-18T17:33:20.088Z,43.53
2023-04-18T17:35:48.841Z,43.39
2023-04-18T17:38:17.861Z,43.47
2023-04-18T17:40:48.171Z,43.50
2023-04-18T17:43:14.769Z,43.55
2023-04-18T17:45:41.588Z,43.49
2023-04-18T17:48:10.526Z,43.45
2023-04-18T17:50:40.885Z,43.45
2023-04-18T17:53:09.928Z,43.36
2023-04-18T17:55:36.670Z,43.52
2023-04-18T17:58:05.991Z,43.33
2023-04-18T18:00:32.625Z,43.14
2023-04-18T18:03:01.637Z,43.44
2023-04-18T18:05:30.752Z,43.47
2023-04-18T18:08:00.146Z,43.38
2023-04-18T18:10:29.457Z,43.43
2023-04-18T18:12:58.230Z,43.49
2023-04-18T18:15:27.273Z,43.29
2023-04-18T18:17:55.019Z,43.36
2023-04-18T18:20:27.453Z,43.20
2023-04-18T18:22:59.791Z,43.41
2023-04-18T18:25:28.702Z,43.46
2023-04-18T18:27:57.779Z,43.22
2023-04-18T18:30:26.661Z,43.23
2023-04-18T18:32:59.473Z,43.33
2023-04-18T18:35:28.264Z,43.33
2023-04-18T18:37:59.617Z,43.41
2023-04-18T18:40:26.442Z,43.25
2023-04-18T18:42:54.737Z,43.30
2023-04-18T18:45:25.818Z,43.40
2023-04-18T18:47:55.539Z,43.37
2023-04-18T18:50:24.451Z,43.28
2023-04-18T18:52:51.126Z,43.29
2023-04-18T18:55:21.657Z,43.34
2023-04-18T18:57:50.575Z,43.22
2023-04-18T19:00:19.422Z,43.38
2023-04-18T19:02:48.380Z,43.40
2023-04-18T19:05:17.814Z,43.35
2023-04-18T19:07:44.496Z,43.32
2023-04-18T19:10:11.330Z,43.19
2023-04-18T19:12:38.240Z,43.20
2023-04-18T19:15:05.924Z,43.14
2023-04-18T19:17:32.607Z,43.35
2023-04-18T19:20:04.040Z,43.09
2023-04-18T19:22:32.910Z,43.22
2023-04-18T19:25:02.034Z,43.08
2023-04-18T19:27:34.494Z,43.12
2023-04-18T19:30:01.188Z,43.06
2023-04-18T19:32:28.123Z,43.11
2023-04-18T19:34:57.028Z,43.25
2023-04-18T19:37:25.904Z,43.12
2023-04-18T19:39:52.557Z,43.20
2023-04-18T19:42:19.378Z,43.25
2023-04-18T19:44:48.204Z,43.19
2023-04-18T19:47:15.527Z,43.08
2023-04-18T19:49:44.330Z,43.05
2023-04-18T19:52:14.242Z,43.23
2023-04-18T19:54:43.197Z,43.19
2023-04-18T19:57:12.195Z,43.04
2023-04-18T19:59:41.201Z,43.24
2023-04-18T20:02:10.101Z,43.09
2023-04-18T20:04:40.879Z,43.04
2023-04-18T20:07:07.699Z,43.24
2023-04-18T20:09:34.442Z,42.90
2023-04-18T20:12:04.145Z,43.07
2023-04-18T20:14:33.953Z,43.13
2023-04-18T20:17:01.055Z,43.17
2023-04-18T20:19:29.976Z,43.22
2023-04-18T20:21:58.883Z,43.08
2023-04-18T20:24:27.930Z,42.94
2023-04-18T20:26:54.736Z,43.19
2023-04-18T20:29:21.522Z,43.00
2023-04-18T20:31:52.767Z,43.06
2023-04-18T20:34:21.755Z,43.07
2023-04-18T20:36:49.911Z,43.16
2023-04-18T20:39:19.073Z,43.04
2023-04-18T20:41:52.491Z,43.07
2023-04-18T20:44:22.317Z,43.18
2023-04-18T20:46:53.611Z,43.23
2023-04-18T20:49:23.186Z,43.22
2023-04-18T20:51:49.797Z,43.36
2023-04-18T20:54:16.568Z,42.99
2023-04-18T20:56:43.552Z,43.22
2023-04-18T20:59:12.813Z,43.13
2023-04-18T21:01:39.499Z,43.08
2023-04-18T21:04:11.048Z,43.02
2023-04-18T21:06:39.897Z,43.00
2023-04-18T21:09:11.428Z,42.97
2023-04-18T21:11:38.123Z,43.16
2023-04-18T21:14:06.701Z,43.24
2023-04-18T21:16:36.767Z,42.97
2023-04-18T21:19:08.308Z,43.10
2023-04-18T21:21:38.365Z,43.02
2023-04-18T21:24:05.740Z,42.95
2023-04-18T21:26:32.430Z,43.12
2023-04-18T21:29:18.185Z,42.97
2023-04-18T21:31:52.079Z,43.18
2023-04-18T21:34:18.943Z,43.13
2023-04-18T21:36:49.268Z,42.89
2023-04-18T21:39:19.290Z,42.96
2023-04-18T21:41:46.167Z,43.01
2023-04-18T21:44:12.995Z,43.01
2023-04-18T21:46:44.694Z,42.95
2023-04-18T21:49:12.456Z,43.06
2023-04-18T21:51:39.124Z,43.24
2023-04-18T21:54:08.544Z,42.97
2023-04-18T21:56:35.216Z,43.00
2023-04-18T21:59:01.943Z,43.01
2023-04-18T22:01:30.876Z,42.93
2023-04-18T22:04:03.910Z,42.87
2023-04-18T22:06:32.523Z,42.92
2023-04-18T22:09:01.478Z,42.83
2023-04-18T22:11:28.623Z,42.88
2023-04-18T22:13:58.172Z,42.75
2023-04-18T22:16:24.987Z,42.92
2023-04-18T22:18:53.959Z,42.91
2023-04-18T22:21:20.618Z,42.94
2023-04-18T22:23:48.898Z,43.01
2023-04-18T22:26:17.847Z,43.01
2023-04-18T22:28:47.081Z,42.89
2023-04-18T22:31:13.783Z,42.74
2023-04-18T22:33:40.464Z,42.85
2023-04-18T22:36:09.794Z,42.90
2023-04-18T22:38:39.533Z,42.74
2023-04-18T22:41:06.351Z,42.79
2023-04-18T22:43:33.001Z,42.85
2023-04-18T22:45:59.702Z,42.87
2023-04-18T22:48:28.501Z,42.89
2023-04-18T22:50:58.243Z,42.77
2023-04-18T22:53:27.098Z,42.98
2023-04-18T22:55:55.089Z,42.87
2023-04-18T22:58:24.075Z,42.88
2023-04-18T23:00:55.548Z,42.79
2023-04-18T23:03:24.574Z,42.70
2023-04-18T23:05:53.495Z,42.97
2023-04-18T23:08:22.722Z,42.70
2023-04-18T23:10:51.575Z,42.74
2023-04-18T23:13:22.943Z,42.83
2023-04-18T23:15:51.854Z,42.98
2023-04-18T23:18:24.437Z,42.74
2023-04-18T23:20:51.206Z,42.77
2023-04-18T23:23:23.254Z,42.59
2023-04-18T23:25:49.935Z,42.89
2023-04-18T23:28:18.888Z,42.70
2023-04-18T23:30:50.339Z,42.61
2023-04-18T23:33:19.138Z,42.70
2023-04-18T23:35:51.369Z,42.79
2023-04-18T23:38:20.725Z,42.83
2023-04-18T23:40:47.513Z,42.82
2023-04-18T23:43:16.502Z,42.68
2023-04-18T23:45:45.696Z,42.83
2023-04-18T23:48:12.391Z,42.74
2023-04-18T23:50:52.519Z,42.62
2023-04-18T23:53:19.758Z,42.90
2023-04-18T23:55:46.919Z,42.77
2023-04-18T23:58:14.564Z,42.94
